createdAt,value
2022-12-04T00:00:01.090Z,0.2
2022-12-04T00:01:03.859Z,0.2
2022-12-04T00:02:06.915Z,0.2
2022-12-04T00:03:10.145Z,0.3
2022-12-04T00:04:13.769Z,0.2
2022-12-04T00:05:16.677Z,0.3
2022-12-04T00:06:20.118Z,0.3
2022-12-04T00:07:23.468Z,0.3
2022-12-04T00:08:26.875Z,0.3
2022-12-04T00:09:29.922Z,0.2
2022-12-04T00:10:33.439Z,0.2
2022-12-04T00:11:36.211Z,0.2
2022-12-04T00:12:38.822Z,0.2
2022-12-04T00:13:41.713Z,0.1
2022-12-04T00:15:27.716Z,0.1
2022-12-04T00:16:31.449Z,0.2
2022-12-04T00:17:33.803Z,0.2
2022-12-04T00:18:37.189Z,0.2
2022-12-04T00:19:40.030Z,0.2
2022-12-04T00:20:43.362Z,0.2
2022-12-04T00:21:46.139Z,0.2
2022-12-04T00:22:48.870Z,0.2
2022-12-04T00:23:51.887Z,0.2
2022-12-04T00:24:55.601Z,0.2
2022-12-04T00:25:59.050Z,0.1
2022-12-04T00:27:01.563Z,0.1
2022-12-04T00:28:04.265Z,0.2
2022-12-04T00:29:06.974Z,0.2
2022-12-04T00:30:09.684Z,0.2
2022-12-04T00:31:12.948Z,0.2
2022-12-04T00:32:15.554Z,0.2
2022-12-04T00:33:17.983Z,0.3
2022-12-04T00:34:21.024Z,0.2
2022-12-04T00:35:23.784Z,0.2
2022-12-04T00:36:26.761Z,0.3
2022-12-04T00:37:30.105Z,0.3
2022-12-04T00:38:32.817Z,0.3
2022-12-04T00:39:36.200Z,0.3
2022-12-04T00:40:39.625Z,0.3
2022-12-04T00:41:43.368Z,0.3
2022-12-04T00:42:46.080Z,0.3
2022-12-04T00:43:48.682Z,0.3
2022-12-04T00:44:51.652Z,0.3
2022-12-04T00:45:54.153Z,0.3
2022-12-04T00:46:56.861Z,0.3
2022-12-04T00:47:59.000Z,0.3
2022-12-04T00:49:02.083Z,0.2
2022-12-04T00:50:04.828Z,0.2
2022-12-04T00:51:08.121Z,0.2
2022-12-04T00:52:10.828Z,0.2
2022-12-04T00:53:13.824Z,0.2
2022-12-04T00:54:16.903Z,0.2
2022-12-04T00:55:20.536Z,0.2
2022-12-04T00:56:23.972Z,0.2
2022-12-04T00:57:26.881Z,0.2
2022-12-04T00:58:29.336Z,0.2
2022-12-04T00:59:31.748Z,0.2
2022-12-04T01:00:34.733Z,0.3
2022-12-04T01:01:38.614Z,0.3
2022-12-04T01:02:42.339Z,0.3
2022-12-04T01:03:45.065Z,0.3
2022-12-04T01:04:47.985Z,0.3
2022-12-04T01:05:50.403Z,0.3
2022-12-04T01:06:53.130Z,0.2
2022-12-04T01:07:55.753Z,0.3
2022-12-04T01:08:58.911Z,0.3
2022-12-04T01:10:01.603Z,0.3
2022-12-04T01:11:04.018Z,0.3
2022-12-04T01:12:06.826Z,0.3
2022-12-04T01:13:10.985Z,0.3
2022-12-04T01:14:13.487Z,0.3
2022-12-04T01:15:16.539Z,0.3
2022-12-04T01:16:19.073Z,0.3
2022-12-04T01:17:22.119Z,0.3
2022-12-04T01:18:24.811Z,0.3
2022-12-04T01:19:27.310Z,0.3
2022-12-04T01:20:30.273Z,0.3
2022-12-04T01:21:33.122Z,0.3
2022-12-04T01:22:36.135Z,0.3
2022-12-04T01:23:39.184Z,0.4
2022-12-04T01:24:42.031Z,0.4
2022-12-04T01:25:44.730Z,0.3
2022-12-04T01:26:47.988Z,0.3
2022-12-04T01:27:50.845Z,0.3
2022-12-04T01:28:55.005Z,0.3
2022-12-04T01:29:59.341Z,0.3
2022-12-04T01:31:02.478Z,0.3
2022-12-04T01:32:05.530Z,0.3
2022-12-04T01:33:08.331Z,0.3
2022-12-04T01:34:11.385Z,0.3
2022-12-04T01:35:14.821Z,0.3
2022-12-04T01:36:17.392Z,0.3
2022-12-04T01:37:20.174Z,0.3
2022-12-04T01:38:23.263Z,0.3
2022-12-04T01:39:26.038Z,0.3
2022-12-04T01:40:28.793Z,0.4
2022-12-04T01:41:32.111Z,0.4
2022-12-04T01:42:34.349Z,0.3
2022-12-04T01:43:37.203Z,0.3
2022-12-04T01:44:41.025Z,0.3
2022-12-04T01:45:44.148Z,0.3
2022-12-04T01:46:47.053Z,0.3
2022-12-04T01:47:50.386Z,0.4
2022-12-04T01:48:53.191Z,0.4
2022-12-04T01:49:58.357Z,0.4
2022-12-04T01:51:01.101Z,0.4
2022-12-04T01:52:03.678Z,0.4
2022-12-04T01:53:06.930Z,0.4
2022-12-04T01:54:10.026Z,0.4
2022-12-04T01:55:12.583Z,0.4
2022-12-04T01:56:15.161Z,0.4
2022-12-04T01:57:18.209Z,0.4
2022-12-04T01:58:21.643Z,0.4
2022-12-04T01:59:24.417Z,0.4
2022-12-04T02:00:28.244Z,0.5
2022-12-04T02:01:31.661Z,0.5
2022-12-04T02:02:34.761Z,0.5
2022-12-04T02:03:38.239Z,0.5
2022-12-04T02:04:40.760Z,0.5
2022-12-04T02:05:43.899Z,0.5
2022-12-04T02:06:46.739Z,0.4
2022-12-04T02:07:49.689Z,0.5
2022-12-04T02:08:52.117Z,0.5
2022-12-04T02:09:57.764Z,0.5
2022-12-04T02:11:01.214Z,0.4
2022-12-04T02:12:04.258Z,0.4
2022-12-04T02:13:07.324Z,0.4
2022-12-04T02:14:10.385Z,0.3
2022-12-04T02:15:13.247Z,0.3
2022-12-04T02:16:17.495Z,0.4
2022-12-04T02:17:20.131Z,0.4
2022-12-04T02:18:22.916Z,0.4
2022-12-04T02:19:26.081Z,0.4
2022-12-04T02:20:27.759Z,0.3
2022-12-04T02:21:30.915Z,0.3
2022-12-04T02:22:33.715Z,0.2
2022-12-04T02:23:36.572Z,0.2
2022-12-04T02:24:39.133Z,0.2
2022-12-04T02:25:42.071Z,0.3
2022-12-04T02:26:45.396Z,0.2
2022-12-04T02:27:48.021Z,0.2
2022-12-04T02:28:51.003Z,0.3
2022-12-04T02:29:55.555Z,0.3
2022-12-04T02:30:59.074Z,0.3
2022-12-04T02:32:03.331Z,0.2
2022-12-04T02:33:06.176Z,0.2
2022-12-04T02:34:09.688Z,0.2
2022-12-04T02:35:12.760Z,0.3
2022-12-04T02:36:15.455Z,0.1
2022-12-04T02:37:19.068Z,0.2
2022-12-04T02:38:21.849Z,0.2
2022-12-04T02:39:24.903Z,0.2
2022-12-04T02:40:27.947Z,0.3
2022-12-04T02:41:30.994Z,0.3
2022-12-04T02:42:33.964Z,0.3
2022-12-04T02:43:36.462Z,0.3
2022-12-04T02:44:38.952Z,0.3
2022-12-04T02:45:41.966Z,0.3
2022-12-04T02:46:44.545Z,0.2
2022-12-04T02:47:48.450Z,0.2
2022-12-04T02:48:51.131Z,0.3
2022-12-04T02:49:55.158Z,0.2
2022-12-04T02:50:58.911Z,0.2
2022-12-04T02:52:01.617Z,0.2
2022-12-04T02:53:05.404Z,0.3
2022-12-04T02:54:08.376Z,0.3
2022-12-04T02:55:11.779Z,0.3
2022-12-04T02:56:15.122Z,0.3
2022-12-04T02:57:18.413Z,0.3
2022-12-04T02:58:21.334Z,0.3
2022-12-04T02:59:23.861Z,0.3
2022-12-04T03:00:25.804Z,0.3
2022-12-04T03:01:29.145Z,0.3
2022-12-04T03:02:32.290Z,0.3
2022-12-04T03:03:36.472Z,0.3
2022-12-04T03:04:39.804Z,0.3
2022-12-04T03:05:42.758Z,0.3
2022-12-04T03:06:46.077Z,0.3
2022-12-04T03:07:49.831Z,0.3
2022-12-04T03:08:52.721Z,0.3
2022-12-04T03:09:57.117Z,0.3
2022-12-04T03:11:00.450Z,0.3
2022-12-04T03:12:03.604Z,0.3
2022-12-04T03:13:07.251Z,0.3
2022-12-04T03:14:09.401Z,0.3
2022-12-04T03:15:12.453Z,0.3
2022-12-04T03:16:15.953Z,0.3
2022-12-04T03:17:18.598Z,0.3
2022-12-04T03:18:21.645Z,0.3
2022-12-04T03:19:25.841Z,0.3
2022-12-04T03:20:28.962Z,0.3
2022-12-04T03:21:32.048Z,0.3
2022-12-04T03:22:35.562Z,0.4
2022-12-04T03:23:38.329Z,0.4
2022-12-04T03:24:40.829Z,0.4
2022-12-04T03:25:44.182Z,0.4
2022-12-04T03:26:47.187Z,0.4
2022-12-04T03:27:50.588Z,0.4
2022-12-04T03:28:53.492Z,0.4
2022-12-04T03:29:57.706Z,0.4
2022-12-04T03:31:01.407Z,0.4
2022-12-04T03:32:04.938Z,0.4
2022-12-04T03:33:08.062Z,0.4
2022-12-04T03:34:10.551Z,0.4
2022-12-04T03:35:14.736Z,0.4
2022-12-04T03:36:17.295Z,0.4
2022-12-04T03:37:20.559Z,0.4
2022-12-04T03:38:24.002Z,0.4
2022-12-04T03:39:27.047Z,0.3
2022-12-04T03:40:29.363Z,0.3
2022-12-04T03:41:32.448Z,0.3
2022-12-04T03:42:35.232Z,0.3
2022-12-04T03:43:38.355Z,0.2
2022-12-04T03:44:41.539Z,0.3
2022-12-04T03:45:45.179Z,0.2
2022-12-04T03:46:48.093Z,0.3
2022-12-04T03:47:50.805Z,0.3
2022-12-04T03:48:53.453Z,0.3
2022-12-04T03:49:58.349Z,0.3
2022-12-04T03:51:02.121Z,0.3
2022-12-04T03:52:05.112Z,0.3
2022-12-04T03:53:07.888Z,0.3
2022-12-04T03:54:10.326Z,0.3
2022-12-04T03:55:13.101Z,0.2
2022-12-04T03:56:15.592Z,0.3
2022-12-04T03:57:19.368Z,0.3
2022-12-04T03:58:22.150Z,0.3
2022-12-04T03:59:24.937Z,0.3
2022-12-04T04:00:28.071Z,0.3
2022-12-04T04:01:31.377Z,0.3
2022-12-04T04:02:34.441Z,0.3
2022-12-04T04:03:37.072Z,0.3
2022-12-04T04:04:40.498Z,0.3
2022-12-04T04:05:43.848Z,0.3
2022-12-04T04:06:47.653Z,0.2
2022-12-04T04:07:51.209Z,0.2
2022-12-04T04:08:54.141Z,0.3
2022-12-04T04:09:58.735Z,0.3
2022-12-04T04:11:01.431Z,0.2
2022-12-04T04:12:04.756Z,0.1
2022-12-04T04:13:07.074Z,0
2022-12-04T04:14:10.135Z,0.1
2022-12-04T04:15:13.191Z,0.1
2022-12-04T04:16:16.604Z,0.1
2022-12-04T04:17:19.833Z,0.1
2022-12-04T04:18:22.255Z,0.1
2022-12-04T04:19:25.616Z,0.2
2022-12-04T04:20:28.385Z,0.2
2022-12-04T04:21:30.825Z,0.2
2022-12-04T04:22:34.950Z,0.3
2022-12-04T04:23:37.835Z,0.3
2022-12-04T04:24:41.341Z,0.3
2022-12-04T04:25:44.979Z,0.3
2022-12-04T04:26:47.675Z,0.3
2022-12-04T04:27:50.759Z,0.3
2022-12-04T04:28:53.142Z,0.3
2022-12-04T04:29:58.308Z,0.3
2022-12-04T04:31:01.485Z,0.3
2022-12-04T04:32:04.721Z,0.4
2022-12-04T04:33:07.530Z,0.4
2022-12-04T04:34:10.954Z,0.4
2022-12-04T04:35:14.011Z,0.4
2022-12-04T04:36:17.090Z,0.4
2022-12-04T04:37:19.671Z,0.5
2022-12-04T04:38:23.229Z,0.4
2022-12-04T04:39:26.154Z,0.5
2022-12-04T04:40:29.760Z,0.5
2022-12-04T04:41:32.202Z,0.5
2022-12-04T04:42:35.007Z,0.5
2022-12-04T04:43:38.436Z,0.5
2022-12-04T04:44:40.934Z,0.5
2022-12-04T04:45:43.706Z,0.5
2022-12-04T04:46:47.046Z,0.5
2022-12-04T04:47:49.923Z,0.5
2022-12-04T04:48:53.053Z,0.5
2022-12-04T04:49:57.120Z,0.5
2022-12-04T04:51:00.829Z,0.5
2022-12-04T04:52:03.610Z,0.6
2022-12-04T04:53:06.738Z,0.6
2022-12-04T04:54:10.573Z,0.5
2022-12-04T04:55:14.003Z,0.6
2022-12-04T04:56:16.599Z,0.6
2022-12-04T04:57:19.300Z,0.5
2022-12-04T04:58:22.009Z,0.6
2022-12-04T04:59:24.984Z,0.6
2022-12-04T05:00:28.033Z,0.6
2022-12-04T05:01:31.360Z,0.6
2022-12-04T05:02:34.471Z,0.6
2022-12-04T05:03:37.267Z,0.7
2022-12-04T05:04:40.674Z,0.7
2022-12-04T05:05:43.459Z,0.7
2022-12-04T05:06:46.501Z,0.6
2022-12-04T05:07:49.803Z,0.6
2022-12-04T05:08:52.692Z,0.6
2022-12-04T05:10:01.892Z,0.6
2022-12-04T05:11:05.027Z,0.6
2022-12-04T05:12:07.555Z,0.5
2022-12-04T05:13:10.913Z,0.6
2022-12-04T05:14:14.266Z,0.5
2022-12-04T05:15:16.811Z,0.5
2022-12-04T05:16:20.134Z,0.6
2022-12-04T05:17:22.960Z,0.6
2022-12-04T05:18:26.661Z,0.6
2022-12-04T05:19:29.692Z,0.6
2022-12-04T05:20:32.395Z,0.5
2022-12-04T05:21:35.375Z,0.6
2022-12-04T05:22:38.444Z,0.6
2022-12-04T05:23:41.623Z,0.5
2022-12-04T05:24:44.876Z,0.5
2022-12-04T05:25:48.730Z,0.5
2022-12-04T05:26:52.016Z,0.5
2022-12-04T05:27:55.142Z,0.5
2022-12-04T05:28:58.339Z,0.5
2022-12-04T05:30:01.552Z,0.5
2022-12-04T05:31:04.947Z,0.5
2022-12-04T05:32:07.875Z,0.6
2022-12-04T05:33:10.642Z,0.6
2022-12-04T05:34:13.964Z,0.6
2022-12-04T05:35:17.150Z,0.6
2022-12-04T05:36:20.007Z,0.6
2022-12-04T05:37:22.814Z,0.6
2022-12-04T05:38:25.236Z,0.6
2022-12-04T05:39:28.325Z,0.6
2022-12-04T05:40:31.092Z,0.6
2022-12-04T05:41:34.900Z,0.6
2022-12-04T05:42:38.055Z,0.6
2022-12-04T05:43:41.089Z,0.6
2022-12-04T05:44:43.508Z,0.6
2022-12-04T05:45:46.832Z,0.5
2022-12-04T05:46:50.661Z,0.5
2022-12-04T05:47:53.466Z,0.5
2022-12-04T05:48:56.535Z,0.5
2022-12-04T05:49:59.597Z,0.5
2022-12-04T05:51:02.709Z,0.6
2022-12-04T05:52:05.483Z,0.6
2022-12-04T05:53:08.064Z,0.6
2022-12-04T05:54:10.767Z,0.6
2022-12-04T05:55:13.344Z,0.5
2022-12-04T05:56:16.035Z,0.5
2022-12-04T05:57:19.896Z,0.5
2022-12-04T05:58:27.774Z,0.5
2022-12-04T05:59:30.648Z,0.5
2022-12-04T06:00:33.768Z,0.4
2022-12-04T06:01:37.059Z,0.5
2022-12-04T06:02:40.613Z,0.5
2022-12-04T06:03:43.320Z,0.5
2022-12-04T06:04:45.478Z,0.5
2022-12-04T06:05:48.873Z,0.6
2022-12-04T06:06:51.896Z,0.6
2022-12-04T06:07:55.515Z,0.6
2022-12-04T06:08:58.732Z,0.6
2022-12-04T06:10:01.797Z,0.7
2022-12-04T06:11:04.374Z,0.7
2022-12-04T06:12:07.488Z,0.7
2022-12-04T06:13:10.982Z,0.7
2022-12-04T06:14:13.699Z,0.7
2022-12-04T06:15:15.909Z,0.7
2022-12-04T06:16:19.300Z,0.7
2022-12-04T06:17:22.201Z,0.7
2022-12-04T06:18:25.274Z,0.6
2022-12-04T06:19:28.320Z,0.6
2022-12-04T06:20:32.115Z,0.6
2022-12-04T06:21:35.562Z,0.6
2022-12-04T06:22:38.073Z,0.6
2022-12-04T06:23:40.587Z,0.6
2022-12-04T06:24:43.002Z,0.4
2022-12-04T06:25:46.066Z,0.5
2022-12-04T06:27:29.934Z,0.4
2022-12-04T06:28:33.691Z,0.4
2022-12-04T06:29:36.403Z,0.5
2022-12-04T06:30:39.451Z,0.5
2022-12-04T06:31:42.464Z,0.5
2022-12-04T06:32:45.349Z,0.5
2022-12-04T06:33:48.441Z,0.5
2022-12-04T06:34:51.155Z,0.5
2022-12-04T06:35:54.053Z,0.6
2022-12-04T06:36:57.378Z,0.5
2022-12-04T06:38:00.677Z,0.5
2022-12-04T06:39:04.407Z,0.5
2022-12-04T06:40:07.382Z,0.6
2022-12-04T06:41:10.154Z,0.6
2022-12-04T06:42:12.953Z,0.5
2022-12-04T06:43:15.717Z,0.6
2022-12-04T06:44:19.313Z,0.5
2022-12-04T06:45:21.740Z,0.6
2022-12-04T06:46:24.995Z,0.6
2022-12-04T06:47:27.651Z,0.6
2022-12-04T06:48:30.715Z,0.7
2022-12-04T06:49:33.491Z,0.7
2022-12-04T06:50:36.197Z,0.7
2022-12-04T06:51:38.794Z,0.8
2022-12-04T06:52:42.158Z,0.8
2022-12-04T06:53:45.261Z,0.7
2022-12-04T06:54:48.592Z,0.7
2022-12-04T06:55:51.666Z,0.8
2022-12-04T06:56:54.897Z,0.8
2022-12-04T06:57:58.030Z,0.8
2022-12-04T06:59:00.872Z,0.8
2022-12-04T07:00:04.413Z,0.8
2022-12-04T07:01:08.393Z,0.8
2022-12-04T07:02:11.739Z,0.9
2022-12-04T07:03:14.901Z,0.9
2022-12-04T07:04:17.478Z,0.9
2022-12-04T07:05:20.906Z,0.9
2022-12-04T07:06:23.414Z,0.9
2022-12-04T07:07:26.856Z,0.9
2022-12-04T07:08:29.798Z,0.9
2022-12-04T07:09:32.615Z,0.9
2022-12-04T07:10:35.468Z,0.8
2022-12-04T07:11:38.526Z,0.8
2022-12-04T07:12:40.949Z,0.7
2022-12-04T07:13:43.655Z,0.7
2022-12-04T07:14:47.089Z,0.6
2022-12-04T07:15:50.672Z,0.6
2022-12-04T07:16:54.039Z,0.6
2022-12-04T07:17:57.041Z,0.7
2022-12-04T07:18:59.747Z,0.7
2022-12-04T07:20:03.075Z,0.7
2022-12-04T07:21:06.131Z,0.7
2022-12-04T07:22:09.560Z,0.8
2022-12-04T07:23:13.059Z,0.8
2022-12-04T07:24:15.877Z,0.8
2022-12-04T07:25:18.784Z,0.8
2022-12-04T07:26:21.085Z,0.7
2022-12-04T07:27:23.670Z,0.6
2022-12-04T07:28:26.448Z,0.6
2022-12-04T07:29:29.490Z,0.6
2022-12-04T07:30:32.360Z,0.6
2022-12-04T07:31:35.910Z,0.7
2022-12-04T07:32:38.803Z,0.7
2022-12-04T07:33:41.697Z,0.7
2022-12-04T07:34:44.363Z,0.7
2022-12-04T07:35:47.415Z,0.8
2022-12-04T07:36:50.458Z,0.8
2022-12-04T07:37:53.150Z,0.8
2022-12-04T07:38:56.210Z,0.8
2022-12-04T07:39:59.940Z,0.8
2022-12-04T07:41:02.495Z,0.8
2022-12-04T07:42:05.826Z,0.8
2022-12-04T07:43:09.609Z,0.8
2022-12-04T07:44:12.376Z,0.8
2022-12-04T07:45:14.879Z,0.8
2022-12-04T07:46:18.949Z,0.7
2022-12-04T07:47:23.231Z,0.7
2022-12-04T07:48:35.062Z,0.8
2022-12-04T07:49:38.318Z,0.8
2022-12-04T07:50:41.014Z,0.8
2022-12-04T07:51:44.145Z,0.7
2022-12-04T07:52:46.655Z,0.7
2022-12-04T07:53:49.150Z,0.6
2022-12-04T07:54:51.634Z,0.7
2022-12-04T07:55:54.133Z,0.8
2022-12-04T07:56:57.161Z,0.8
2022-12-04T07:57:59.950Z,0.8
2022-12-04T07:59:02.662Z,0.8
2022-12-04T08:00:05.462Z,0.8
2022-12-04T08:01:08.772Z,0.8
2022-12-04T08:02:12.008Z,0.8
2022-12-04T08:03:15.879Z,0.8
2022-12-04T08:04:19.688Z,0.9
2022-12-04T08:05:22.553Z,0.9
2022-12-04T08:06:24.982Z,0.9
2022-12-04T08:07:28.542Z,0.9
2022-12-04T08:08:31.091Z,0.9
2022-12-04T08:09:33.789Z,0.9
2022-12-04T08:10:36.995Z,0.9
2022-12-04T08:11:39.690Z,0.8
2022-12-04T08:12:42.446Z,0.8
2022-12-04T08:13:45.210Z,0.8
2022-12-04T08:14:48.340Z,0.8
2022-12-04T08:15:51.738Z,0.8
2022-12-04T08:16:55.517Z,0.6
2022-12-04T08:17:58.653Z,0.6
2022-12-04T08:19:01.935Z,0.6
2022-12-04T08:20:05.436Z,0.6
2022-12-04T08:21:08.692Z,0.7
2022-12-04T08:22:11.500Z,0.6
2022-12-04T08:23:14.059Z,0.9
2022-12-04T08:24:16.908Z,1.6
2022-12-04T08:25:19.324Z,1.5
2022-12-04T08:26:22.100Z,1.5
2022-12-04T08:27:25.173Z,1.4
2022-12-04T08:28:27.649Z,1.3
2022-12-04T08:29:30.701Z,1.3
2022-12-04T08:30:34.274Z,1.3
2022-12-04T08:31:37.751Z,1.3
2022-12-04T08:32:41.256Z,1.2
2022-12-04T08:33:44.054Z,1.2
2022-12-04T08:34:57.366Z,1.2
2022-12-04T08:36:00.166Z,1.2
2022-12-04T08:37:03.342Z,1.2
2022-12-04T08:38:06.041Z,1.2
2022-12-04T08:39:09.094Z,1.2
2022-12-04T08:40:12.348Z,1.3
2022-12-04T08:41:15.050Z,1.3
2022-12-04T08:42:18.111Z,1.4
2022-12-04T08:43:20.253Z,1.4
2022-12-04T08:44:23.625Z,1.4
2022-12-04T08:45:26.664Z,1.4
2022-12-04T08:46:30.493Z,1.4
2022-12-04T08:47:34.334Z,1.4
2022-12-04T08:48:37.315Z,1.4
2022-12-04T08:49:39.732Z,1.4
2022-12-04T08:50:43.592Z,1.3
2022-12-04T08:51:46.753Z,1.3
2022-12-04T08:52:49.643Z,1.3
2022-12-04T08:53:53.067Z,1.3
2022-12-04T08:54:56.186Z,1.3
2022-12-04T08:55:59.042Z,1.3
2022-12-04T08:57:02.084Z,1.3
2022-12-04T08:58:04.691Z,1.3
2022-12-04T08:59:07.824Z,1.3
2022-12-04T09:00:10.641Z,1.3
2022-12-04T09:01:13.930Z,1.3
2022-12-04T09:02:16.474Z,1.3
2022-12-04T09:03:18.984Z,1.3
2022-12-04T09:04:22.815Z,1.3
2022-12-04T09:05:25.874Z,1.3
2022-12-04T09:06:29.956Z,1.3
2022-12-04T09:07:32.911Z,1.4
2022-12-04T09:08:36.397Z,1.4
2022-12-04T09:09:48.779Z,1.4
2022-12-04T09:10:52.234Z,1.5
2022-12-04T09:11:54.828Z,1.5
2022-12-04T09:12:57.236Z,1.5
2022-12-04T09:14:00.073Z,1.5
2022-12-04T09:15:03.051Z,1.5
2022-12-04T09:16:06.664Z,1.5
2022-12-04T09:17:10.466Z,1.5
2022-12-04T09:18:12.944Z,1.5
2022-12-04T09:19:16.654Z,1.5
2022-12-04T09:20:19.140Z,1.5
2022-12-04T09:21:21.928Z,1.5
2022-12-04T09:22:25.777Z,1.5
2022-12-04T09:23:29.058Z,1.5
2022-12-04T09:24:32.069Z,1.5
2022-12-04T09:25:35.517Z,1.5
2022-12-04T09:26:38.573Z,1.5
2022-12-04T09:27:42.097Z,1.6
2022-12-04T09:28:44.506Z,1.5
2022-12-04T09:29:47.663Z,1.5
2022-12-04T09:30:50.188Z,1.5
2022-12-04T09:31:53.371Z,1.5
2022-12-04T09:32:56.063Z,1.5
2022-12-04T09:33:58.483Z,1.5
2022-12-04T09:35:00.978Z,1.4
2022-12-04T09:36:04.054Z,1.4
2022-12-04T09:37:07.127Z,1.4
2022-12-04T09:38:10.430Z,1.4
2022-12-04T09:39:13.440Z,1.4
2022-12-04T09:40:15.869Z,1.4
2022-12-04T09:41:18.664Z,1.4
2022-12-04T09:42:21.362Z,1.4
2022-12-04T09:43:24.756Z,1.4
2022-12-04T09:44:27.584Z,1.4
2022-12-04T09:45:30.707Z,1.4
2022-12-04T09:46:34.471Z,1.4
2022-12-04T09:47:37.885Z,1.4
2022-12-04T09:48:40.618Z,1.5
2022-12-04T09:49:44.063Z,1.5
2022-12-04T09:50:47.184Z,1.5
2022-12-04T09:51:50.255Z,1.5
2022-12-04T09:52:53.376Z,1.5
2022-12-04T09:53:57.183Z,1.4
2022-12-04T09:55:00.559Z,1.4
2022-12-04T09:56:04.040Z,1.4
2022-12-04T09:57:07.018Z,1.4
2022-12-04T09:58:09.713Z,1.3
2022-12-04T09:59:12.436Z,1.4
2022-12-04T10:00:14.578Z,1.4
2022-12-04T10:01:17.157Z,1.4
2022-12-04T10:02:20.698Z,1.4
2022-12-04T10:03:25.045Z,1.4
2022-12-04T10:04:28.014Z,1.4
2022-12-04T10:05:30.863Z,1.5
2022-12-04T10:06:33.442Z,1.5
2022-12-04T10:07:36.881Z,1.5
2022-12-04T10:08:39.388Z,1.6
2022-12-04T10:09:42.916Z,1.6
2022-12-04T10:10:45.903Z,1.6
2022-12-04T10:11:48.954Z,1.6
2022-12-04T10:12:51.971Z,1.6
2022-12-04T10:13:54.740Z,1.7
2022-12-04T10:14:57.712Z,1.6
2022-12-04T10:16:01.394Z,1.7
2022-12-04T10:17:04.224Z,1.7
2022-12-04T10:18:07.265Z,1.7
2022-12-04T10:19:10.075Z,1.8
2022-12-04T10:20:12.774Z,1.8
2022-12-04T10:21:15.462Z,1.7
2022-12-04T10:22:17.976Z,1.7
2022-12-04T10:23:21.581Z,1.7
2022-12-04T10:24:24.458Z,1.8
2022-12-04T10:25:27.751Z,1.8
2022-12-04T10:26:31.136Z,1.8
2022-12-04T10:27:33.913Z,1.8
2022-12-04T10:28:37.041Z,1.8
2022-12-04T10:29:40.089Z,1.8
2022-12-04T10:30:43.247Z,1.7
2022-12-04T10:31:46.576Z,1.7
2022-12-04T10:32:49.472Z,1.7
2022-12-04T10:33:52.607Z,1.8
2022-12-04T10:34:55.510Z,1.8
2022-12-04T10:35:58.086Z,1.9
2022-12-04T10:37:01.336Z,1.9
2022-12-04T10:38:04.116Z,1.9
2022-12-04T10:39:07.189Z,2
2022-12-04T10:40:10.242Z,2
2022-12-04T10:41:17.183Z,2.1
2022-12-04T10:42:20.459Z,2
2022-12-04T10:43:23.304Z,2
2022-12-04T10:44:26.078Z,2
2022-12-04T10:45:28.869Z,2
2022-12-04T10:46:32.075Z,2
2022-12-04T10:47:35.467Z,2.1
2022-12-04T10:48:38.321Z,2
2022-12-04T10:49:41.191Z,2
2022-12-04T10:50:44.500Z,2
2022-12-04T10:51:48.127Z,2
2022-12-04T10:52:50.826Z,2
2022-12-04T10:53:53.954Z,2
2022-12-04T10:54:57.016Z,2
2022-12-04T10:56:00.060Z,2
2022-12-04T10:57:03.853Z,2
2022-12-04T10:58:06.908Z,2
2022-12-04T10:59:09.398Z,2
2022-12-04T11:00:12.810Z,1.9
2022-12-04T11:01:16.168Z,2
2022-12-04T11:02:19.708Z,2
2022-12-04T11:03:22.618Z,2
2022-12-04T11:04:25.460Z,2
2022-12-04T11:05:28.563Z,2
2022-12-04T11:06:31.968Z,2
2022-12-04T11:07:35.031Z,2
2022-12-04T11:08:38.235Z,2
2022-12-04T11:09:41.633Z,2
2022-12-04T11:10:44.333Z,2
2022-12-04T11:11:47.479Z,2
2022-12-04T11:12:51.277Z,2
2022-12-04T11:13:53.969Z,2
2022-12-04T11:14:56.184Z,2.1
2022-12-04T11:15:59.647Z,2.1
2022-12-04T11:17:02.781Z,2.1
2022-12-04T11:18:06.220Z,2.1
2022-12-04T11:19:09.268Z,2.1
2022-12-04T11:20:12.978Z,2.1
2022-12-04T11:21:15.958Z,2
2022-12-04T11:22:19.326Z,2.1
2022-12-04T11:23:21.803Z,2
2022-12-04T11:24:24.773Z,2
2022-12-04T11:25:27.196Z,2
2022-12-04T11:26:30.696Z,2.1
2022-12-04T11:27:33.900Z,2.1
2022-12-04T11:28:45.052Z,2.1
2022-12-04T11:29:48.416Z,2.1
2022-12-04T11:30:51.393Z,2.2
2022-12-04T11:31:55.532Z,2.2
2022-12-04T11:32:58.561Z,2.2
2022-12-04T11:34:01.331Z,2.2
2022-12-04T11:35:03.963Z,2.2
2022-12-04T11:36:07.663Z,2.3
2022-12-04T11:37:09.528Z,2.3
2022-12-04T11:38:12.700Z,2.3
2022-12-04T11:39:15.777Z,2.3
2022-12-04T11:40:19.627Z,2.3
2022-12-04T11:41:23.054Z,2.3
2022-12-04T11:42:25.777Z,2.3
2022-12-04T11:43:28.419Z,2.4
2022-12-04T11:44:31.943Z,2.4
2022-12-04T11:45:35.226Z,2.3
2022-12-04T11:46:39.155Z,2.3
2022-12-04T11:47:42.613Z,2.3
2022-12-04T11:48:45.579Z,2.3
2022-12-04T11:49:48.697Z,2.3
2022-12-04T11:50:51.194Z,2.3
2022-12-04T11:51:54.331Z,2.2
2022-12-04T11:52:56.738Z,2.3
2022-12-04T11:54:00.110Z,2.3
2022-12-04T11:55:03.434Z,2.2
2022-12-04T11:56:05.652Z,2.3
2022-12-04T11:57:08.341Z,2.3
2022-12-04T11:58:11.392Z,2.3
2022-12-04T11:59:14.444Z,2.3
2022-12-04T12:00:24.157Z,2.3
2022-12-04T12:01:26.957Z,2.3
2022-12-04T12:02:30.993Z,2.3
2022-12-04T12:03:35.032Z,2.3
2022-12-04T12:04:38.199Z,2.4
2022-12-04T12:05:41.913Z,2.4
2022-12-04T12:06:44.682Z,2.4
2022-12-04T12:07:48.305Z,2.4
2022-12-04T12:08:50.907Z,2.4
2022-12-04T12:09:55.656Z,2.5
2022-12-04T12:10:58.978Z,2.5
2022-12-04T12:12:02.605Z,2.5
2022-12-04T12:13:05.377Z,2.5
2022-12-04T12:14:07.990Z,2.5
2022-12-04T12:15:11.405Z,2.5
2022-12-04T12:16:15.234Z,2.5
2022-12-04T12:17:23.144Z,2.5
2022-12-04T12:18:26.300Z,2.6
2022-12-04T12:19:29.382Z,2.5
2022-12-04T12:20:32.096Z,2.6
2022-12-04T12:21:35.702Z,2.6
2022-12-04T12:22:38.474Z,2.6
2022-12-04T12:23:42.187Z,2.6
2022-12-04T12:24:52.806Z,2.6
2022-12-04T12:25:56.005Z,2.6
2022-12-04T12:26:58.911Z,2.6
2022-12-04T12:28:02.236Z,2.7
2022-12-04T12:29:05.256Z,2.6
2022-12-04T12:30:08.332Z,2.6
2022-12-04T12:31:11.044Z,2.6
2022-12-04T12:32:14.780Z,2.6
2022-12-04T12:33:17.672Z,2.6
2022-12-04T12:34:20.471Z,2.6
2022-12-04T12:35:22.612Z,2.6
2022-12-04T12:36:25.391Z,2.5
2022-12-04T12:37:28.717Z,2.5
2022-12-04T12:38:31.158Z,2.5
2022-12-04T12:39:34.880Z,2.5
2022-12-04T12:40:37.849Z,2.5
2022-12-04T12:41:41.209Z,2.5
2022-12-04T12:42:44.597Z,2.6
2022-12-04T12:43:47.526Z,2.6
2022-12-04T12:44:50.928Z,2.7
2022-12-04T12:45:53.831Z,2.7
2022-12-04T12:46:57.194Z,2.7
2022-12-04T12:48:00.976Z,2.7
2022-12-04T12:49:04.712Z,2.8
2022-12-04T12:50:07.429Z,2.7
2022-12-04T20:09:01.333Z,3.2
2022-12-04T20:10:05.105Z,3.2
2022-12-04T20:11:07.889Z,3.1
2022-12-04T20:12:10.756Z,3.2
2022-12-04T20:13:14.736Z,3.2
2022-12-04T20:14:17.788Z,3.2
2022-12-04T20:15:20.281Z,3.2
2022-12-04T20:16:23.637Z,3.1
2022-12-04T20:17:26.858Z,3
2022-12-04T20:18:29.983Z,3
2022-12-04T20:19:33.316Z,2.9
2022-12-04T20:20:36.930Z,2.8
2022-12-04T20:21:39.721Z,2.9
2022-12-04T20:22:42.157Z,3
2022-12-04T20:23:45.264Z,3
2022-12-04T20:24:49.011Z,3
2022-12-04T20:25:52.750Z,3
2022-12-04T20:26:55.816Z,3
2022-12-04T20:27:58.107Z,3
2022-12-04T20:29:00.878Z,3
2022-12-04T20:30:04.302Z,3.1
2022-12-04T20:31:07.707Z,3.1
2022-12-04T20:32:10.898Z,3.1
2022-12-04T20:33:14.028Z,3.1
2022-12-04T20:34:17.325Z,3.1
2022-12-04T20:35:19.890Z,3.2
2022-12-04T20:36:23.050Z,3.2
2022-12-04T20:37:26.464Z,3.2
2022-12-04T20:38:28.959Z,3.2
2022-12-04T20:39:32.066Z,3.2
2022-12-04T20:40:35.458Z,3.2
2022-12-04T20:41:39.527Z,3.2
2022-12-04T20:42:42.785Z,3.2
2022-12-04T20:43:45.491Z,3.2
2022-12-04T20:44:48.653Z,3.2
2022-12-04T20:45:52.446Z,3.1
2022-12-04T20:46:55.795Z,3
2022-12-04T20:47:58.799Z,3
2022-12-04T20:49:00.988Z,3
2022-12-04T20:50:03.980Z,3.1
2022-12-04T20:51:06.760Z,3.1
2022-12-04T20:52:09.887Z,3.1
2022-12-04T20:53:12.596Z,3.1
2022-12-04T20:54:15.370Z,3.2
2022-12-04T20:55:18.064Z,3.1
2022-12-04T20:56:21.164Z,3.1
2022-12-04T20:57:24.729Z,3.1
2022-12-04T20:58:27.792Z,3.1
2022-12-04T20:59:30.499Z,3.1
2022-12-04T21:00:33.078Z,3.1
2022-12-04T21:01:35.808Z,3.1
2022-12-04T21:02:39.405Z,3.2
2022-12-04T21:03:42.596Z,3.1
2022-12-04T21:04:45.298Z,3.2
2022-12-04T21:05:48.082Z,3.2
2022-12-04T21:06:51.225Z,3.2
2022-12-04T21:07:54.314Z,3.2
2022-12-04T21:08:57.325Z,3.3
2022-12-04T21:10:01.207Z,3.3
2022-12-04T21:11:04.257Z,3.3
2022-12-04T21:12:07.085Z,3.2
2022-12-04T21:13:11.101Z,3.2
2022-12-04T21:14:13.685Z,3.2
2022-12-04T21:15:17.014Z,3.1
2022-12-04T21:16:20.503Z,3.1
2022-12-04T21:17:23.657Z,3.2
2022-12-04T21:18:27.104Z,3.2
2022-12-04T21:19:30.273Z,3.2
2022-12-04T21:20:32.776Z,3.2
2022-12-04T21:21:35.641Z,3.2
2022-12-04T21:22:39.347Z,3.2
2022-12-04T21:23:42.206Z,3.2
2022-12-04T21:24:44.990Z,3.2
2022-12-04T21:25:47.494Z,3.2
2022-12-04T21:26:51.492Z,3.3
2022-12-04T21:27:55.221Z,3.3
2022-12-04T21:28:58.780Z,3.3
2022-12-04T21:30:01.911Z,3.2
2022-12-04T21:31:05.691Z,3.3
2022-12-04T21:32:09.256Z,3.3
2022-12-04T21:33:12.596Z,3.3
2022-12-04T21:34:16.043Z,3.3
2022-12-04T21:35:19.034Z,3.3
2022-12-04T21:36:21.925Z,3.4
2022-12-04T21:37:24.733Z,3.3
2022-12-04T21:38:28.160Z,3.3
2022-12-04T21:39:31.566Z,3.4
2022-12-04T21:40:44.000Z,3.3
2022-12-04T21:41:46.992Z,3.4
2022-12-04T21:42:50.061Z,3.4
2022-12-04T21:43:53.603Z,3.4
2022-12-04T21:44:57.108Z,3.5
2022-12-04T21:46:10.508Z,3.5
2022-12-04T21:47:13.546Z,3.5
2022-12-04T21:48:16.414Z,3.5
2022-12-04T21:49:19.673Z,3.4
2022-12-04T21:50:22.657Z,3.5
2022-12-04T21:52:00.092Z,3.5
2022-12-04T21:53:03.456Z,3.5